VRMM/MLE METAR and TAF weather

Enter ICAO airport designator
Station Type Date Time Source
VRMM METAR 2021/04/13 06:00 UTC NOAA

VRMM 130600Z 27008KT 9999 FEW018TCU 32/26 Q1012 NOSIG


Station Type Date Time Source
VRMM Decoded METAR 2021/04/13 06:00 UTC NOAA

Male, Maldives (VRMM) 04-12N 073-32E 2M
Apr 13, 2021 - 02:00 AM EDT / 2021.04.13 0600 UTC
Wind: from the W (270 degrees) at 9 MPH (8 KT):0
Visibility: greater than 7 mile(s):0
Sky conditions: mostly clear
Weather: Towering cumulus clouds observed
Temperature: 89 F (32 C)
Heat index: 102.9 F (39.4 C):1
Dew Point: 78 F (26 C)
Relative Humidity: 70%
Pressure (altimeter): 29.88 in. Hg (1012 hPa)
ob: VRMM 130600Z 27008KT 9999 FEW018TCU 32/26 Q1012 NOSIG
cycle: 6

Station Type Date Time Source
VRMM TAF 2021/04/13 06:09 UTC NOAA

TAF VRMM 130500Z 1306/1412 27005KT 9999 FEW018TCU
TEMPO 1308/1314 FEW018CB

Example: see airport list